createdAt,value
2022-08-27T00:02:11.950Z,19.31
2022-08-27T00:04:57.234Z,19.27
2022-08-27T00:07:43.603Z,19.21
2022-08-27T00:10:29.393Z,19.11
2022-08-27T00:13:16.104Z,19.05
2022-08-27T00:16:01.753Z,17.98
2022-08-27T00:18:48.678Z,19.05
2022-08-27T00:21:34.485Z,19.09
2022-08-27T00:24:20.113Z,18.67
2022-08-27T00:27:05.856Z,18.03
2022-08-27T00:29:52.729Z,19.04
2022-08-27T00:32:38.827Z,18.04
2022-08-27T00:35:24.485Z,18.70
2022-08-27T00:38:10.245Z,18.92
2022-08-27T00:40:56.176Z,18.94
2022-08-27T00:43:53.825Z,18.90
2022-08-27T00:46:55.225Z,18.59
2022-08-27T00:49:53.109Z,18.70
2022-08-27T00:52:46.817Z,18.64
2022-08-27T00:55:39.193Z,17.37
2022-08-27T00:58:36.313Z,18.42
2022-08-27T01:01:29.370Z,18.34
2022-08-27T01:04:14.743Z,18.35
2022-08-27T01:07:01.470Z,17.31
2022-08-27T01:09:49.801Z,17.30
2022-08-27T01:12:36.575Z,18.26
2022-08-27T01:15:26.201Z,18.61
2022-08-27T01:18:13.584Z,18.63
2022-08-27T01:21:10.716Z,17.67
2022-08-27T01:24:20.875Z,18.68
2022-08-27T01:27:13.281Z,17.56
2022-08-27T01:29:59.830Z,18.68
2022-08-27T01:32:46.570Z,17.80
2022-08-27T01:35:33.206Z,18.70
2022-08-27T01:38:30.405Z,18.64
2022-08-27T01:41:17.364Z,18.64
2022-08-27T01:44:03.748Z,17.39
2022-08-27T01:46:49.438Z,17.51
2022-08-27T01:49:34.956Z,18.61
2022-08-27T01:52:24.574Z,18.41
2022-08-27T01:55:13.124Z,18.61
2022-08-27T01:57:58.500Z,17.53
2022-08-27T02:00:47.094Z,17.67
2022-08-27T02:03:39.229Z,17.41
2022-08-27T02:06:25.063Z,18.17
2022-08-27T02:09:10.380Z,17.69
2022-08-27T02:11:55.819Z,18.27
2022-08-27T02:14:40.960Z,18.41
2022-08-27T02:17:26.569Z,18.34
2022-08-27T02:20:13.346Z,18.28
2022-08-27T02:22:59.256Z,17.10
2022-08-27T02:25:47.320Z,17.45
2022-08-27T02:28:34.423Z,18.16
2022-08-27T02:31:20.690Z,17.04
2022-08-27T02:34:06.504Z,18.14
2022-08-27T02:36:53.911Z,18.15
2022-08-27T02:39:41.254Z,18.08
2022-08-27T02:42:30.733Z,18.25
2022-08-27T02:45:17.231Z,18.01
2022-08-27T02:48:04.524Z,18.29
2022-08-27T02:50:51.045Z,17.40
2022-08-27T02:53:38.080Z,17.98
2022-08-27T02:56:24.437Z,17.70
2022-08-27T02:59:10.554Z,17.79
2022-08-27T03:01:56.391Z,17.25
2022-08-27T03:04:42.296Z,18.00
2022-08-27T03:07:27.857Z,17.61
2022-08-27T03:10:16.982Z,17.47
2022-08-27T03:13:02.285Z,17.35
2022-08-27T03:15:48.198Z,17.99
2022-08-27T03:18:35.929Z,16.50
2022-08-27T03:21:26.684Z,17.89
2022-08-27T03:24:14.728Z,17.47
2022-08-27T03:27:00.769Z,17.86
2022-08-27T03:29:46.694Z,17.51
2022-08-27T03:32:32.347Z,16.98
2022-08-27T03:35:19.631Z,16.91
2022-08-27T03:38:05.134Z,17.70
2022-08-27T03:40:50.878Z,16.72
2022-08-27T03:43:36.659Z,17.76
2022-08-27T03:46:22.970Z,17.68
2022-08-27T03:49:08.529Z,17.55
2022-08-27T03:51:59.189Z,16.40
2022-08-27T03:54:45.737Z,16.28
2022-08-27T03:57:31.739Z,16.27
2022-08-27T04:00:17.354Z,17.28
2022-08-27T04:03:03.313Z,16.90
2022-08-27T04:05:56.018Z,17.31
2022-08-27T04:08:41.682Z,17.31
2022-08-27T04:11:29.503Z,17.27
2022-08-27T04:14:26.440Z,17.40
2022-08-27T04:17:13.672Z,17.26
2022-08-27T04:20:18.822Z,16.71
2022-08-27T04:23:08.047Z,17.37
2022-08-27T04:25:53.329Z,17.62
2022-08-27T04:28:39.215Z,17.76
2022-08-27T04:31:25.864Z,17.75
2022-08-27T04:34:11.571Z,16.62
2022-08-27T04:36:57.447Z,17.60
2022-08-27T04:39:42.783Z,17.79
2022-08-27T04:42:31.282Z,17.53
2022-08-27T04:45:17.439Z,17.80
2022-08-27T04:48:03.853Z,17.68
2022-08-27T04:50:49.953Z,17.75
2022-08-27T04:53:35.388Z,17.78
2022-08-27T04:56:22.968Z,16.93
2022-08-27T04:59:10.553Z,17.90
2022-08-27T05:01:56.186Z,17.75
2022-08-27T05:04:42.890Z,16.95
2022-08-27T05:07:28.519Z,17.88
2022-08-27T05:10:14.208Z,18.37
2022-08-27T05:13:00.152Z,18.62
2022-08-27T05:15:46.589Z,18.71
2022-08-27T05:18:35.243Z,19.23
2022-08-27T05:21:28.336Z,19.56
2022-08-27T05:24:14.465Z,19.01
2022-08-27T05:27:00.381Z,20.23
2022-08-27T05:29:47.298Z,20.32
2022-08-27T05:32:33.156Z,20.66
2022-08-27T05:35:19.515Z,19.97
2022-08-27T05:38:05.653Z,20.39
2022-08-27T05:41:01.751Z,20.49
2022-08-27T05:43:50.457Z,21.69
2022-08-27T05:46:39.643Z,20.86
2022-08-27T05:49:26.028Z,22.39
2022-08-27T05:52:12.230Z,21.54
2022-08-27T05:54:57.873Z,22.67
2022-08-27T05:57:43.882Z,22.14
2022-08-27T06:00:47.982Z,23.33
2022-08-27T06:03:35.759Z,23.51
2022-08-27T06:06:22.915Z,23.70
2022-08-27T06:09:10.716Z,23.63
2022-08-27T06:12:00.772Z,24.07
2022-08-27T06:14:46.342Z,24.21
2022-08-27T06:17:31.739Z,24.38
2022-08-27T06:20:17.343Z,24.43
2022-08-27T06:23:03.049Z,24.48
2022-08-27T06:25:49.469Z,23.92
2022-08-27T06:28:35.607Z,24.63
2022-08-27T06:31:24.342Z,24.26
2022-08-27T06:34:10.632Z,24.99
2022-08-27T06:36:56.742Z,25.13
2022-08-27T06:39:42.424Z,25.14
2022-08-27T06:42:28.976Z,25.33
2022-08-27T06:45:15.218Z,25.21
2022-08-27T06:48:01.079Z,25.48
2022-08-27T06:50:46.617Z,24.65
2022-08-27T06:53:32.826Z,25.63
2022-08-27T06:56:19.343Z,25.72
2022-08-27T06:59:11.631Z,24.87
2022-08-27T07:01:57.885Z,24.99
2022-08-27T07:04:43.642Z,25.02
2022-08-27T07:07:34.396Z,25.98
2022-08-27T07:10:24.795Z,25.90
2022-08-27T07:13:10.745Z,26.22
2022-08-27T07:15:57.565Z,25.82
2022-08-27T07:18:45.436Z,26.10
2022-08-27T07:21:32.353Z,25.57
2022-08-27T07:24:19.203Z,26.04
2022-08-27T07:27:04.876Z,26.40
2022-08-27T07:29:50.247Z,26.75
2022-08-27T07:32:35.662Z,26.25
2022-08-27T07:35:21.203Z,26.69
2022-08-27T07:38:06.955Z,26.36
2022-08-27T07:40:53.849Z,27.05
2022-08-27T07:43:58.406Z,27.04
2022-08-27T07:46:48.246Z,27.15
2022-08-27T07:49:35.484Z,27.16
2022-08-27T07:52:25.893Z,26.96
2022-08-27T07:55:12.912Z,26.80
2022-08-27T07:57:58.810Z,27.29
2022-08-27T08:00:45.726Z,27.34
2022-08-27T08:03:31.738Z,26.55
2022-08-27T08:06:17.892Z,27.47
2022-08-27T08:09:03.912Z,26.77
2022-08-27T08:11:51.063Z,26.61
2022-08-27T08:14:38.854Z,27.29
2022-08-27T08:17:25.632Z,27.34
2022-08-27T08:20:27.446Z,27.61
2022-08-27T08:23:18.388Z,26.74
2022-08-27T08:26:05.117Z,25.44
2022-08-27T08:28:51.090Z,27.52
2022-08-27T08:31:36.781Z,26.79
2022-08-27T08:34:22.002Z,27.42
2022-08-27T08:37:08.199Z,27.58
2022-08-27T08:39:54.969Z,27.44
2022-08-27T08:42:50.511Z,27.39
2022-08-27T08:45:42.639Z,27.08
2022-08-27T08:48:31.268Z,27.85
2022-08-27T08:51:25.689Z,27.83
2022-08-27T08:54:18.805Z,27.80
2022-08-27T08:57:19.819Z,27.43
2022-08-27T09:00:12.771Z,27.80
2022-08-27T09:02:59.150Z,27.56
2022-08-27T09:06:19.351Z,27.90
2022-08-27T09:09:27.499Z,28.00
2022-08-27T09:12:27.668Z,28.05
2022-08-27T09:15:22.132Z,27.69
2022-08-27T09:18:14.359Z,28.07
2022-08-27T09:21:51.788Z,28.09
2022-08-27T09:24:57.752Z,28.10
2022-08-27T09:27:46.761Z,28.06
2022-08-27T09:30:45.350Z,28.12
2022-08-27T09:33:54.910Z,28.17
2022-08-27T09:37:17.978Z,28.23
2022-08-27T09:40:23.229Z,28.31
2022-08-27T09:43:25.249Z,28.32
2022-08-27T09:46:29.566Z,28.11
2022-08-27T09:49:17.859Z,28.23
2022-08-27T09:52:04.776Z,28.32
2022-08-27T09:54:56.123Z,28.32
2022-08-27T09:57:47.353Z,28.28
2022-08-27T10:00:46.134Z,28.30
2022-08-27T10:03:38.621Z,28.29
2022-08-27T10:06:32.190Z,28.34
2022-08-27T10:09:34.561Z,27.53
2022-08-27T10:12:54.509Z,28.50
2022-08-27T10:15:55.368Z,28.51
2022-08-27T10:18:55.486Z,27.75
2022-08-27T10:22:22.015Z,28.48
2022-08-27T10:25:20.491Z,28.23
2022-08-27T10:28:55.379Z,28.51
2022-08-27T10:32:10.578Z,28.49
2022-08-27T10:35:26.580Z,28.57
2022-08-27T10:38:55.107Z,28.61
2022-08-27T10:42:13.676Z,27.69
2022-08-27T10:45:05.894Z,28.60
2022-08-27T10:49:10.585Z,28.67
2022-08-27T10:52:29.743Z,28.67
2022-08-27T10:55:35.397Z,28.67
2022-08-27T10:58:49.781Z,28.68
2022-08-27T11:02:16.779Z,28.69
2022-08-27T11:05:44.364Z,28.76
2022-08-27T11:08:52.304Z,28.86
2022-08-27T11:12:13.942Z,28.56
2022-08-27T11:15:12.748Z,28.16
2022-08-27T11:18:25.279Z,28.15
2022-08-27T11:21:25.271Z,28.84
2022-08-27T11:24:23.416Z,28.15
2022-08-27T11:27:10.012Z,28.49
2022-08-27T11:30:08.518Z,28.65
2022-08-27T11:32:59.865Z,27.81
2022-08-27T11:36:07.290Z,28.98
2022-08-27T11:39:02.981Z,29.02
2022-08-27T11:41:58.138Z,28.97
2022-08-27T11:44:47.708Z,28.88
2022-08-27T11:47:34.376Z,29.10
2022-08-27T11:50:27.191Z,29.09
2022-08-27T11:53:13.130Z,28.37
2022-08-27T11:56:21.001Z,29.03
2022-08-27T11:59:34.565Z,29.11
2022-08-27T12:02:28.116Z,29.04
2022-08-27T12:05:35.087Z,28.88
2022-08-27T12:08:32.768Z,29.03
2022-08-27T12:11:56.816Z,28.97
2022-08-27T12:14:48.020Z,28.96
2022-08-27T12:18:08.885Z,28.79
2022-08-27T12:21:39.198Z,29.03
2022-08-27T12:24:59.421Z,29.02
2022-08-27T12:27:56.225Z,28.90
2022-08-27T12:30:50.266Z,28.25
2022-08-27T12:33:47.701Z,28.77
2022-08-27T12:36:35.306Z,28.56
2022-08-27T12:39:35.055Z,28.76
2022-08-27T12:42:23.024Z,28.75
2022-08-27T12:45:17.513Z,28.67
2022-08-27T12:48:09.125Z,28.59
2022-08-27T12:51:02.785Z,28.26
2022-08-27T12:54:24.354Z,28.42
2022-08-27T12:57:21.746Z,28.63
2022-08-27T13:00:19.461Z,28.66
2022-08-27T13:03:17.965Z,28.63
2022-08-27T13:06:23.708Z,28.61
2022-08-27T13:09:11.047Z,27.74
2022-08-27T13:11:57.937Z,28.67
2022-08-27T13:14:44.102Z,28.66
2022-08-27T13:17:43.624Z,28.64
2022-08-27T13:20:30.054Z,28.23
2022-08-27T13:23:20.480Z,28.42
2022-08-27T13:26:09.733Z,28.63
2022-08-27T13:29:01.209Z,27.89
2022-08-27T13:31:50.497Z,28.43
2022-08-27T13:34:40.288Z,27.64
2022-08-27T13:37:33.538Z,28.19
2022-08-27T13:40:32.749Z,28.56
2022-08-27T13:43:19.594Z,28.61
2022-08-27T13:46:31.088Z,28.63
2022-08-27T13:49:22.584Z,28.67
2022-08-27T13:52:27.870Z,28.69
2022-08-27T13:55:17.201Z,28.73
2022-08-27T13:58:14.048Z,28.71
2022-08-27T14:01:27.067Z,28.35
2022-08-27T14:04:24.272Z,28.14
2022-08-27T14:07:35.995Z,28.66
2022-08-27T14:10:34.776Z,28.65
2022-08-27T14:13:24.492Z,28.25
2022-08-27T14:16:23.990Z,28.45
2022-08-27T14:19:12.773Z,28.56
2022-08-27T14:21:59.791Z,28.56
2022-08-27T14:24:47.003Z,28.55
2022-08-27T14:27:36.528Z,28.57
2022-08-27T14:30:29.617Z,28.52
2022-08-27T14:33:16.878Z,28.32
2022-08-27T14:36:03.006Z,28.49
2022-08-27T14:38:51.788Z,28.51
2022-08-27T14:41:38.363Z,28.50
2022-08-27T14:44:27.459Z,28.35
2022-08-27T14:47:16.599Z,28.48
2022-08-27T14:50:04.023Z,28.21
2022-08-27T14:52:50.156Z,28.14
2022-08-27T14:55:35.733Z,28.45
2022-08-27T14:58:22.144Z,28.43
2022-08-27T15:01:08.985Z,28.37
2022-08-27T15:03:55.981Z,27.72
2022-08-27T15:06:41.779Z,28.05
2022-08-27T15:09:27.427Z,28.28
2022-08-27T15:12:19.321Z,28.27
2022-08-27T15:15:14.610Z,28.25
2022-08-27T15:18:00.570Z,28.20
2022-08-27T15:20:46.089Z,28.22
2022-08-27T15:23:32.757Z,28.19
2022-08-27T15:26:18.429Z,28.14
2022-08-27T15:29:06.627Z,28.16
2022-08-27T15:31:54.401Z,28.14
2022-08-27T15:34:40.409Z,28.13
2022-08-27T15:37:28.240Z,28.10
2022-08-27T15:40:20.245Z,28.06
2022-08-27T15:43:08.461Z,27.97
2022-08-27T15:45:56.389Z,27.98
2022-08-27T15:48:43.726Z,27.93
2022-08-27T15:51:32.457Z,27.86
2022-08-27T15:54:18.662Z,27.86
2022-08-27T15:57:05.732Z,27.83
2022-08-27T15:59:51.113Z,27.67
2022-08-27T16:02:36.633Z,27.58
2022-08-27T16:05:23.477Z,27.80
2022-08-27T16:08:10.096Z,27.84
2022-08-27T16:10:58.245Z,27.80
2022-08-27T16:13:46.411Z,27.82
2022-08-27T16:17:02.235Z,27.76
2022-08-27T16:19:49.477Z,27.02
2022-08-27T16:22:35.433Z,27.63
2022-08-27T16:25:23.329Z,26.75
2022-08-27T16:28:09.234Z,26.53
2022-08-27T16:30:56.804Z,27.25
2022-08-27T16:33:44.054Z,27.27
2022-08-27T16:36:31.910Z,27.19
2022-08-27T16:39:19.509Z,27.10
2022-08-27T16:42:05.873Z,26.86
2022-08-27T16:44:52.124Z,26.77
2022-08-27T16:47:58.087Z,26.88
2022-08-27T16:50:44.236Z,26.02
2022-08-27T16:53:33.441Z,26.58
2022-08-27T16:56:20.572Z,26.40
2022-08-27T16:59:13.358Z,26.23
2022-08-27T17:02:00.683Z,26.22
2022-08-27T17:04:58.469Z,25.20
2022-08-27T17:07:52.951Z,26.12
2022-08-27T17:10:41.833Z,25.99
2022-08-27T17:13:32.583Z,25.07
2022-08-27T17:16:21.500Z,25.67
2022-08-27T17:19:10.089Z,25.44
2022-08-27T17:22:01.575Z,25.23
2022-08-27T17:24:47.286Z,25.12
2022-08-27T17:27:33.401Z,24.76
2022-08-27T17:30:19.046Z,24.79
2022-08-27T17:33:05.168Z,24.98
2022-08-27T17:35:51.418Z,24.96
2022-08-27T17:38:39.292Z,24.93
2022-08-27T17:41:34.552Z,24.91
2022-08-27T17:44:31.619Z,23.90
2022-08-27T17:47:25.385Z,24.84
2022-08-27T17:50:12.853Z,23.82
2022-08-27T17:53:02.429Z,24.67
2022-08-27T17:55:54.739Z,24.55
2022-08-27T17:59:10.604Z,24.42
2022-08-27T18:02:00.930Z,24.29
2022-08-27T18:05:17.199Z,24.24
2022-08-27T18:08:16.479Z,24.16
2022-08-27T18:11:06.169Z,24.05
2022-08-27T18:14:04.711Z,23.91
2022-08-27T18:17:06.762Z,23.80
2022-08-27T18:19:58.512Z,23.69
2022-08-27T18:22:56.363Z,23.42
2022-08-27T18:26:08.678Z,23.50
2022-08-27T18:29:02.655Z,23.50
2022-08-27T18:31:54.633Z,23.49
2022-08-27T18:34:41.415Z,23.49
2022-08-27T18:37:29.325Z,23.45
2022-08-27T18:40:18.517Z,23.43
2022-08-27T18:43:09.143Z,23.39
2022-08-27T18:46:02.375Z,23.32
2022-08-27T18:49:19.091Z,23.28
2022-08-27T18:52:15.274Z,23.00
2022-08-27T18:55:10.943Z,23.07
2022-08-27T18:58:11.689Z,23.13
2022-08-27T19:01:03.461Z,23.13
2022-08-27T19:03:54.645Z,23.05
2022-08-27T19:06:56.596Z,21.99
2022-08-27T19:09:48.283Z,22.67
2022-08-27T19:12:48.980Z,22.48
2022-08-27T19:15:36.339Z,22.26
2022-08-27T19:18:27.868Z,21.17
2022-08-27T19:21:15.981Z,20.89
2022-08-27T19:24:05.383Z,22.07
2022-08-27T19:26:52.215Z,21.33
2022-08-27T19:29:38.517Z,21.90
2022-08-27T19:35:35.734Z,21.75
2022-08-27T19:38:32.042Z,21.71
2022-08-27T19:41:19.067Z,20.68
2022-08-27T19:44:05.412Z,21.64
2022-08-27T19:46:56.406Z,21.51
2022-08-27T19:49:46.958Z,21.26
2022-08-27T19:52:32.871Z,21.44
2022-08-27T19:55:22.146Z,21.28
2022-08-27T19:58:07.902Z,21.29
2022-08-27T20:00:54.674Z,21.52
2022-08-27T20:03:40.808Z,21.58
2022-08-27T20:06:27.855Z,21.61
2022-08-27T20:09:15.541Z,21.65
2022-08-27T20:12:01.033Z,21.39
2022-08-27T20:14:48.259Z,21.39
2022-08-27T20:17:38.837Z,20.56
2022-08-27T20:20:28.327Z,21.54
2022-08-27T20:23:15.781Z,21.45
2022-08-27T20:26:01.768Z,21.37
2022-08-27T20:28:50.308Z,21.32
2022-08-27T20:31:36.540Z,21.27
2022-08-27T20:34:22.662Z,20.09
2022-08-27T20:37:09.191Z,21.20
2022-08-27T20:39:55.814Z,21.19
2022-08-27T20:42:42.486Z,21.20
2022-08-27T20:45:28.596Z,21.23
2022-08-27T20:48:16.058Z,20.64
2022-08-27T20:51:03.954Z,21.25
2022-08-27T20:53:51.130Z,21.32
2022-08-27T20:56:37.805Z,21.29
2022-08-27T20:59:44.358Z,21.24
2022-08-27T21:02:31.075Z,20.08
2022-08-27T21:05:19.211Z,21.04
2022-08-27T21:08:08.268Z,21.07
2022-08-27T21:11:01.505Z,20.22
2022-08-27T21:13:56.078Z,21.01
2022-08-27T21:16:46.023Z,21.04
2022-08-27T21:19:36.289Z,20.96
2022-08-27T21:22:26.867Z,20.93
2022-08-27T21:25:18.564Z,20.79
2022-08-27T21:28:12.250Z,20.82
2022-08-27T21:30:59.431Z,20.79
2022-08-27T21:33:45.994Z,20.77
2022-08-27T21:36:34.833Z,20.78
2022-08-27T21:39:21.026Z,20.79
2022-08-27T21:42:08.841Z,20.83
2022-08-27T21:44:55.015Z,20.15
2022-08-27T21:47:41.926Z,20.47
2022-08-27T21:50:27.999Z,20.40
2022-08-27T21:53:14.679Z,20.61
2022-08-27T21:56:00.681Z,20.51
2022-08-27T21:58:47.484Z,19.82
2022-08-27T22:01:34.179Z,19.61
2022-08-27T22:04:20.197Z,20.38
2022-08-27T22:07:08.864Z,19.38
2022-08-27T22:09:54.251Z,20.40
2022-08-27T22:12:40.488Z,20.43
2022-08-27T22:15:26.763Z,19.39
2022-08-27T22:18:13.052Z,20.21
2022-08-27T22:21:00.063Z,19.77
2022-08-27T22:23:46.088Z,18.78
2022-08-27T22:26:32.071Z,19.88
2022-08-27T22:29:17.975Z,19.81
2022-08-27T22:32:07.874Z,19.52
2022-08-27T22:34:54.414Z,19.55
2022-08-27T22:37:40.889Z,18.81
2022-08-27T22:40:28.670Z,19.50
2022-08-27T22:43:14.382Z,19.51
2022-08-27T22:45:59.716Z,19.55
2022-08-27T22:48:45.229Z,19.30
2022-08-27T22:51:30.712Z,19.21
2022-08-27T22:54:19.909Z,19.12
2022-08-27T22:57:05.422Z,19.28
2022-08-27T22:59:51.832Z,19.57
2022-08-27T23:02:38.826Z,19.58
2022-08-27T23:05:26.335Z,18.67
2022-08-27T23:08:14.792Z,19.56
2022-08-27T23:11:02.396Z,18.84
2022-08-27T23:13:48.637Z,18.67
2022-08-27T23:16:35.127Z,19.52
2022-08-27T23:19:20.693Z,19.42
2022-08-27T23:22:07.180Z,19.55
2022-08-27T23:25:12.115Z,19.54
2022-08-27T23:27:59.769Z,19.51
2022-08-27T23:30:46.495Z,19.31
2022-08-27T23:33:32.886Z,18.40
2022-08-27T23:36:19.029Z,19.50
2022-08-27T23:39:05.944Z,19.34
2022-08-27T23:41:51.569Z,19.29
2022-08-27T23:44:37.312Z,19.26
2022-08-27T23:47:22.562Z,18.86
2022-08-27T23:50:09.036Z,19.30
2022-08-27T23:52:54.462Z,19.28
2022-08-27T23:55:42.219Z,19.23
2022-08-27T23:58:28.784Z,19.18
